Cuaca Aktual Bandara Mali

Waktu Pengamatan : 2021-06-21 08:00:00 WITA


DAY-CLEAR
Cerah
Suhu Udara
27 °C
Titik Embun
24 °C

Tekanan Udara 1012 hPa
Jarak Pandang >=10 km

Angin
Tenang
METAR Terkini : METAR WATM 210000Z 00000KT CAVOK 27/24 Q1012|NOSIG=